sensor_id;sensor_type;location;lat;lon;timestamp;pressure;altitude;pressure_sealevel;temperature;humidity
32243;BME280;18731;42.830;24.390;2022-11-24T03:01:09;93522.66;;;3.72;80.61
32243;BME280;18731;42.830;24.390;2022-11-24T03:03:35;93517.53;;;3.67;79.83
32243;BME280;18731;42.830;24.390;2022-11-24T03:06:01;93520.16;;;3.67;79.67
32243;BME280;18731;42.830;24.390;2022-11-24T03:08:27;93515.19;;;3.57;79.35
32243;BME280;18731;42.830;24.390;2022-11-24T03:10:52;93530.38;;;3.60;79.58
32243;BME280;18731;42.830;24.390;2022-11-24T03:13:18;93457.97;;;3.09;80.02
32243;BME280;18731;42.830;24.390;2022-11-24T03:15:44;93532.84;;;3.48;80.34
32243;BME280;18731;42.830;24.390;2022-11-24T03:18:10;93538.91;;;3.48;80.44
32243;BME280;18731;42.830;24.390;2022-11-24T03:20:35;93541.22;;;3.50;81.26
32243;BME280;18731;42.830;24.390;2022-11-24T03:23:01;93541.88;;;3.55;81.30
32243;BME280;18731;42.830;24.390;2022-11-24T03:25:27;93546.06;;;3.57;80.72
32243;BME280;18731;42.830;24.390;2022-11-24T03:27:54;93549.78;;;3.55;80.43
32243;BME280;18731;42.830;24.390;2022-11-24T03:30:21;93551.97;;;3.62;80.49
32243;BME280;18731;42.830;24.390;2022-11-24T03:32:46;93555.22;;;3.59;81.09
32243;BME280;18731;42.830;24.390;2022-11-24T03:35:12;93549.47;;;3.57;81.54
32243;BME280;18731;42.830;24.390;2022-11-24T03:37:37;93552.31;;;3.69;81.16
32243;BME280;18731;42.830;24.390;2022-11-24T03:40:03;93550.88;;;3.63;81.71
32243;BME280;18731;42.830;24.390;2022-11-24T03:42:29;93548.38;;;3.58;82.64
32243;BME280;18731;42.830;24.390;2022-11-24T03:44:55;93533.31;;;3.50;83.08
32243;BME280;18731;42.830;24.390;2022-11-24T03:47:20;93546.53;;;3.59;82.49
32243;BME280;18731;42.830;24.390;2022-11-24T03:49:46;93549.03;;;3.64;82.40
32243;BME280;18731;42.830;24.390;2022-11-24T03:52:12;93549.63;;;3.61;83.13
32243;BME280;18731;42.830;24.390;2022-11-24T03:54:37;93555.38;;;3.63;83.34
32243;BME280;18731;42.830;24.390;2022-11-24T03:57:03;93552.28;;;3.61;83.43
32243;BME280;18731;42.830;24.390;2022-11-24T03:59:29;93543.72;;;3.55;83.25
32243;BME280;18731;42.830;24.390;2022-11-24T04:01:54;93551.22;;;3.70;83.73
32243;BME280;18731;42.830;24.390;2022-11-24T04:04:20;93539.72;;;3.66;84.16
32243;BME280;18731;42.830;24.390;2022-11-24T04:06:46;93559.59;;;3.72;83.71
32243;BME280;18731;42.830;24.390;2022-11-24T04:09:11;93558.66;;;3.68;83.97
32243;BME280;18731;42.830;24.390;2022-11-24T04:11:37;93547.97;;;3.73;83.64
32243;BME280;18731;42.830;24.390;2022-11-24T04:14:21;93568.03;;;3.92;83.16
32243;BME280;18731;42.830;24.390;2022-11-24T04:16:47;93538.19;;;3.82;83.01
32243;BME280;18731;42.830;24.390;2022-11-24T04:19:12;93554.97;;;3.86;83.16
32243;BME280;18731;42.830;24.390;2022-11-24T04:21:38;93570.19;;;3.90;83.29
32243;BME280;18731;42.830;24.390;2022-11-24T04:24:04;93570.81;;;3.95;82.88
32243;BME280;18731;42.830;24.390;2022-11-24T04:26:29;93571.16;;;4.02;82.88
32243;BME280;18731;42.830;24.390;2022-11-24T04:28:55;93578.00;;;4.12;82.46
32243;BME280;18731;42.830;24.390;2022-11-24T04:31:20;93571.44;;;4.01;81.77
32243;BME280;18731;42.830;24.390;2022-11-24T04:33:46;93588.25;;;4.13;80.85
32243;BME280;18731;42.830;24.390;2022-11-24T04:36:11;93586.06;;;4.07;80.49
32243;BME280;18731;42.830;24.390;2022-11-24T04:38:37;93555.13;;;3.90;80.58
32243;BME280;18731;42.830;24.390;2022-11-24T04:41:03;93589.63;;;4.11;80.47
32243;BME280;18731;42.830;24.390;2022-11-24T04:43:30;93588.56;;;4.12;79.94
32243;BME280;18731;42.830;24.390;2022-11-24T04:45:59;93588.84;;;4.02;80.43
32243;BME280;18731;42.830;24.390;2022-11-24T04:48:25;93591.03;;;4.00;80.60
32243;BME280;18731;42.830;24.390;2022-11-24T04:50:51;93589.31;;;3.95;81.25
32243;BME280;18731;42.830;24.390;2022-11-24T04:53:17;93582.94;;;3.87;80.95
32243;BME280;18731;42.830;24.390;2022-11-24T04:55:42;93572.38;;;3.87;80.43
32243;BME280;18731;42.830;24.390;2022-11-24T04:58:11;93602.97;;;3.97;79.92
32243;BME280;18731;42.830;24.390;2022-11-24T05:00:38;93602.97;;;3.97;79.53
32243;BME280;18731;42.830;24.390;2022-11-24T05:03:04;93605.78;;;4.01;79.62
32243;BME280;18731;42.830;24.390;2022-11-24T05:05:30;93606.84;;;3.91;80.50
32243;BME280;18731;42.830;24.390;2022-11-24T05:07:58;93604.50;;;3.90;80.57
32243;BME280;18731;42.830;24.390;2022-11-24T05:10:24;93607.47;;;3.88;80.51
32243;BME280;18731;42.830;24.390;2022-11-24T05:13:09;93608.34;;;3.75;82.39
32243;BME280;18731;42.830;24.390;2022-11-24T05:15:39;93605.69;;;3.66;82.49
32243;BME280;18731;42.830;24.390;2022-11-24T05:18:11;93607.25;;;3.67;82.64
32243;BME280;18731;42.830;24.390;2022-11-24T05:20:38;93602.28;;;3.66;82.12
32243;BME280;18731;42.830;24.390;2022-11-24T05:23:06;93609.75;;;3.72;82.32
32243;BME280;18731;42.830;24.390;2022-11-24T05:25:33;93608.66;;;3.73;82.05
32243;BME280;18731;42.830;24.390;2022-11-24T05:28:00;93610.53;;;3.81;81.96
32243;BME280;18731;42.830;24.390;2022-11-24T05:30:27;93614.59;;;3.87;81.38
32243;BME280;18731;42.830;24.390;2022-11-24T05:32:53;93610.25;;;3.92;81.52
32243;BME280;18731;42.830;24.390;2022-11-24T05:35:19;93614.13;;;3.85;81.02
32243;BME280;18731;42.830;24.390;2022-11-24T05:37:45;93623.75;;;3.90;81.51
32243;BME280;18731;42.830;24.390;2022-11-24T05:40:12;93613.38;;;3.94;82.34
32243;BME280;18731;42.830;24.390;2022-11-24T05:42:38;93616.16;;;3.88;81.84
32243;BME280;18731;42.830;24.390;2022-11-24T05:45:12;93616.28;;;3.75;81.92
32243;BME280;18731;42.830;24.390;2022-11-24T05:47:40;93622.03;;;3.85;81.95
32243;BME280;18731;42.830;24.390;2022-11-24T05:50:07;93632.00;;;3.88;81.61
32243;BME280;18731;42.830;24.390;2022-11-24T05:52:33;93635.25;;;3.85;81.81
32243;BME280;18731;42.830;24.390;2022-11-24T05:54:59;93620.94;;;3.78;82.14
32243;BME280;18731;42.830;24.390;2022-11-24T05:57:25;93622.03;;;3.85;81.97
32243;BME280;18731;42.830;24.390;2022-11-24T05:59:50;93622.69;;;3.91;81.50
32243;BME280;18731;42.830;24.390;2022-11-24T06:02:16;93645.06;;;3.94;80.22
32243;BME280;18731;42.830;24.390;2022-11-24T06:04:42;93644.09;;;3.90;80.33
32243;BME280;18731;42.830;24.390;2022-11-24T06:07:09;93640.53;;;3.85;80.19
32243;BME280;18731;42.830;24.390;2022-11-24T06:09:40;93649.38;;;3.90;80.27
32243;BME280;18731;42.830;24.390;2022-11-24T06:12:06;93661.59;;;3.77;79.82
32243;BME280;18731;42.830;24.390;2022-11-24T06:14:33;93660.34;;;3.74;80.60
32243;BME280;18731;42.830;24.390;2022-11-24T06:16:59;93672.34;;;3.80;80.89
32243;BME280;18731;42.830;24.390;2022-11-24T06:19:25;93659.75;;;3.77;81.25
32243;BME280;18731;42.830;24.390;2022-11-24T06:21:50;93667.06;;;3.80;81.16
32243;BME280;18731;42.830;24.390;2022-11-24T06:24:16;93654.94;;;3.79;81.61
32243;BME280;18731;42.830;24.390;2022-11-24T06:26:42;93659.31;;;3.84;81.82
32243;BME280;18731;42.830;24.390;2022-11-24T06:29:07;93677.19;;;3.96;81.80
32243;BME280;18731;42.830;24.390;2022-11-24T06:31:33;93679.41;;;4.02;81.86
32243;BME280;18731;42.830;24.390;2022-11-24T06:33:59;93683.94;;;4.10;81.74
32243;BME280;18731;42.830;24.390;2022-11-24T06:36:25;93683.78;;;4.15;81.72
32243;BME280;18731;42.830;24.390;2022-11-24T06:38:52;93690.94;;;4.24;81.80
32243;BME280;18731;42.830;24.390;2022-11-24T06:41:18;93688.81;;;4.34;81.74
32243;BME280;18731;42.830;24.390;2022-11-24T06:43:44;93686.94;;;4.35;82.08
32243;BME280;18731;42.830;24.390;2022-11-24T06:46:11;93683.38;;;4.39;82.06
32243;BME280;18731;42.830;24.390;2022-11-24T06:48:37;93687.28;;;4.50;82.02
32243;BME280;18731;42.830;24.390;2022-11-24T06:51:05;93699.25;;;4.57;81.60
32243;BME280;18731;42.830;24.390;2022-11-24T06:53:32;93704.53;;;4.57;81.80
32243;BME280;18731;42.830;24.390;2022-11-24T06:56:04;93689.47;;;4.57;82.13
32243;BME280;18731;42.830;24.390;2022-11-24T06:58:30;93700.06;;;4.92;82.65
32243;BME280;18731;42.830;24.390;2022-11-24T07:00:58;93701.63;;;5.36;82.55
32243;BME280;18731;42.830;24.390;2022-11-24T07:03:24;93705.28;;;5.69;79.77
32243;BME280;18731;42.830;24.390;2022-11-24T07:05:57;93704.91;;;5.88;78.40
32243;BME280;18731;42.830;24.390;2022-11-24T07:08:24;93710.13;;;6.14;77.39
32243;BME280;18731;42.830;24.390;2022-11-24T07:10:50;93700.25;;;6.32;77.08
32243;BME280;18731;42.830;24.390;2022-11-24T07:13:20;93709.88;;;6.66;75.94
32243;BME280;18731;42.830;24.390;2022-11-24T07:15:46;93723.53;;;6.76;75.43
32243;BME280;18731;42.830;24.390;2022-11-24T07:18:12;93725.09;;;6.77;74.45
32243;BME280;18731;42.830;24.390;2022-11-24T07:20:38;93718.63;;;6.87;74.09
32243;BME280;18731;42.830;24.390;2022-11-24T07:23:03;93731.97;;;6.99;73.20
32243;BME280;18731;42.830;24.390;2022-11-24T07:25:29;93731.16;;;6.78;73.98
32243;BME280;18731;42.830;24.390;2022-11-24T07:27:58;93727.75;;;6.48;75.20
32243;BME280;18731;42.830;24.390;2022-11-24T07:30:25;93742.59;;;6.40;75.42
32243;BME280;18731;42.830;24.390;2022-11-24T07:32:51;93740.97;;;6.19;76.28
32243;BME280;18731;42.830;24.390;2022-11-24T07:35:17;93746.50;;;6.05;77.43
32243;BME280;18731;42.830;24.390;2022-11-24T07:37:43;93751.31;;;6.03;78.22
32243;BME280;18731;42.830;24.390;2022-11-24T07:40:09;93739.81;;;5.99;78.22
32243;BME280;18731;42.830;24.390;2022-11-24T07:42:35;93726.41;;;5.95;78.68
32243;BME280;18731;42.830;24.390;2022-11-24T07:45:01;93749.25;;;6.17;78.32
32243;BME280;18731;42.830;24.390;2022-11-24T07:47:26;93763.81;;;6.40;77.67
32243;BME280;18731;42.830;24.390;2022-11-24T07:49:52;93749.94;;;6.35;77.73
32243;BME280;18731;42.830;24.390;2022-11-24T07:52:17;93759.50;;;6.27;79.01
32243;BME280;18731;42.830;24.390;2022-11-24T07:54:43;93756.88;;;6.19;79.61
32243;BME280;18731;42.830;24.390;2022-11-24T07:57:09;93762.06;;;6.44;79.56
32243;BME280;18731;42.830;24.390;2022-11-24T07:59:34;93745.44;;;6.35;79.02
32243;BME280;18731;42.830;24.390;2022-11-24T08:02:00;93770.56;;;6.88;77.87
32243;BME280;18731;42.830;24.390;2022-11-24T08:04:26;93772.28;;;7.34;76.11
32243;BME280;18731;42.830;24.390;2022-11-24T08:06:51;93777.63;;;7.67;75.98
32243;BME280;18731;42.830;24.390;2022-11-24T08:09:17;93776.84;;;7.88;74.22
32243;BME280;18731;42.830;24.390;2022-11-24T08:11:42;93780.16;;;7.85;73.40
32243;BME280;18731;42.830;24.390;2022-11-24T08:14:08;93766.09;;;7.84;74.14
32243;BME280;18731;42.830;24.390;2022-11-24T08:16:34;93774.88;;;7.97;73.26
32243;BME280;18731;42.830;24.390;2022-11-24T08:18:59;93759.13;;;7.92;75.47
32243;BME280;18731;42.830;24.390;2022-11-24T08:21:25;93780.25;;;8.21;76.14
32243;BME280;18731;42.830;24.390;2022-11-24T08:23:54;93786.28;;;8.43;75.98
32243;BME280;18731;42.830;24.390;2022-11-24T08:26:20;93785.63;;;8.58;74.96
32243;BME280;18731;42.830;24.390;2022-11-24T08:28:53;93783.53;;;8.76;74.19
32243;BME280;18731;42.830;24.390;2022-11-24T08:31:19;93783.88;;;8.86;73.05
32243;BME280;18731;42.830;24.390;2022-11-24T08:33:46;93792.91;;;9.22;73.59
32243;BME280;18731;42.830;24.390;2022-11-24T08:36:14;93790.00;;;9.39;72.13
32243;BME280;18731;42.830;24.390;2022-11-24T08:38:41;93788.53;;;9.54;71.08
32243;BME280;18731;42.830;24.390;2022-11-24T08:41:13;93801.41;;;9.52;71.36
32243;BME280;18731;42.830;24.390;2022-11-24T08:43:39;93797.75;;;9.44;70.36
32243;BME280;18731;42.830;24.390;2022-11-24T08:46:07;93805.97;;;9.39;72.00
32243;BME280;18731;42.830;24.390;2022-11-24T08:48:33;93803.13;;;9.32;71.97
32243;BME280;18731;42.830;24.390;2022-11-24T08:51:05;93806.91;;;9.19;72.63
32243;BME280;18731;42.830;24.390;2022-11-24T08:53:31;93801.81;;;8.77;72.77
32243;BME280;18731;42.830;24.390;2022-11-24T08:56:01;93803.81;;;8.68;73.82
32243;BME280;18731;42.830;24.390;2022-11-24T08:58:28;93810.47;;;8.50;74.10
32243;BME280;18731;42.830;24.390;2022-11-24T09:00:54;93801.63;;;8.25;74.57
32243;BME280;18731;42.830;24.390;2022-11-24T09:03:20;93804.25;;;8.13;76.09
32243;BME280;18731;42.830;24.390;2022-11-24T09:05:45;93798.59;;;8.02;75.19
32243;BME280;18731;42.830;24.390;2022-11-24T09:08:11;93808.34;;;8.10;75.41
32243;BME280;18731;42.830;24.390;2022-11-24T09:10:37;93801.19;;;7.90;75.58
32243;BME280;18731;42.830;24.390;2022-11-24T09:13:02;93797.19;;;7.84;76.58
32243;BME280;18731;42.830;24.390;2022-11-24T09:15:28;93811.06;;;7.89;76.66
32243;BME280;18731;42.830;24.390;2022-11-24T09:17:54;93813.06;;;7.92;77.38
32243;BME280;18731;42.830;24.390;2022-11-24T09:20:20;93810.97;;;7.98;76.84
32243;BME280;18731;42.830;24.390;2022-11-24T09:22:46;93823.41;;;8.06;76.70
32243;BME280;18731;42.830;24.390;2022-11-24T09:25:12;93812.06;;;7.97;77.98
32243;BME280;18731;42.830;24.390;2022-11-24T09:27:37;93819.22;;;8.17;77.01
32243;BME280;18731;42.830;24.390;2022-11-24T09:30:03;93809.03;;;8.19;76.99
32243;BME280;18731;42.830;24.390;2022-11-24T09:32:30;93822.66;;;8.18;77.71
32243;BME280;18731;42.830;24.390;2022-11-24T09:34:55;93812.91;;;8.22;77.54
32243;BME280;18731;42.830;24.390;2022-11-24T09:37:21;93807.72;;;8.25;76.36
32243;BME280;18731;42.830;24.390;2022-11-24T09:39:47;93817.03;;;8.31;76.34
32243;BME280;18731;42.830;24.390;2022-11-24T09:45:49;93820.56;;;8.23;76.05
32243;BME280;18731;42.830;24.390;2022-11-24T09:48:29;93813.91;;;8.17;76.32
32243;BME280;18731;42.830;24.390;2022-11-24T09:50:58;93816.69;;;8.21;76.90
32243;BME280;18731;42.830;24.390;2022-11-24T09:53:54;93793.75;;;8.16;76.63
32243;BME280;18731;42.830;24.390;2022-11-24T09:56:22;93817.97;;;8.35;76.28
32243;BME280;18731;42.830;24.390;2022-11-24T09:59:12;93811.03;;;8.22;77.17
32243;BME280;18731;42.830;24.390;2022-11-24T10:01:44;93812.81;;;8.18;77.78
32243;BME280;18731;42.830;24.390;2022-11-24T10:04:18;93817.03;;;8.31;76.54
32243;BME280;18731;42.830;24.390;2022-11-24T10:09:50;93814.78;;;8.54;76.86
32243;BME280;18731;42.830;24.390;2022-11-24T10:21:02;93807.94;;;8.78;75.99
32243;BME280;18731;42.830;24.390;2022-11-24T10:23:41;93804.94;;;8.79;75.76
32243;BME280;18731;42.830;24.390;2022-11-24T10:28:53;93803.16;;;8.95;74.20
32243;BME280;18731;42.830;24.390;2022-11-24T10:31:42;93808.69;;;9.02;74.37
32243;BME280;18731;42.830;24.390;2022-11-24T10:34:13;93802.38;;;8.95;74.56
32243;BME280;18731;42.830;24.390;2022-11-24T10:42:28;93794.72;;;8.93;73.97
32243;BME280;18731;42.830;24.390;2022-11-24T10:45:14;93774.78;;;8.75;74.54
32243;BME280;18731;42.830;24.390;2022-11-24T10:47:42;93799.06;;;8.86;74.64
32243;BME280;18731;42.830;24.390;2022-11-24T10:58:27;93802.50;;;8.98;74.86
32243;BME280;18731;42.830;24.390;2022-11-24T11:00:55;93793.84;;;8.89;74.37
32243;BME280;18731;42.830;24.390;2022-11-24T11:03:28;93801.59;;;8.94;74.60
32243;BME280;18731;42.830;24.390;2022-11-24T11:06:09;93796.72;;;8.84;74.55
32243;BME280;18731;42.830;24.390;2022-11-24T11:08:36;93797.16;;;8.74;75.44
32243;BME280;18731;42.830;24.390;2022-11-24T11:11:20;93789.97;;;8.62;76.13
32243;BME280;18731;42.830;24.390;2022-11-24T11:13:52;93788.53;;;8.65;75.08
32243;BME280;18731;42.830;24.390;2022-11-24T11:16:39;93784.53;;;8.59;75.54
32243;BME280;18731;42.830;24.390;2022-11-24T11:19:27;93779.09;;;8.55;75.94
32243;BME280;18731;42.830;24.390;2022-11-24T11:24:31;93782.09;;;8.54;76.84
32243;BME280;18731;42.830;24.390;2022-11-24T11:27:08;93776.97;;;8.36;77.11
32243;BME280;18731;42.830;24.390;2022-11-24T11:29:40;93790.72;;;8.38;77.59
32243;BME280;18731;42.830;24.390;2022-11-24T11:32:17;93786.69;;;8.32;77.36
32243;BME280;18731;42.830;24.390;2022-11-24T11:34:44;93796.03;;;8.38;78.11
32243;BME280;18731;42.830;24.390;2022-11-24T11:37:12;93790.06;;;8.42;78.35
32243;BME280;18731;42.830;24.390;2022-11-24T11:39:40;93787.19;;;8.47;77.55
32243;BME280;18731;42.830;24.390;2022-11-24T11:42:18;93783.84;;;8.50;78.23
32243;BME280;18731;42.830;24.390;2022-11-24T11:47:28;93787.19;;;8.71;77.02
32243;BME280;18731;42.830;24.390;2022-11-24T11:49:56;93788.75;;;8.72;76.32
32243;BME280;18731;42.830;24.390;2022-11-24T11:52:39;93777.88;;;8.65;76.73
32243;BME280;18731;42.830;24.390;2022-11-24T11:55:36;93783.88;;;8.74;76.02
32243;BME280;18731;42.830;24.390;2022-11-24T12:00:35;93786.84;;;8.60;75.56
32243;BME280;18731;42.830;24.390;2022-11-24T12:03:32;93788.41;;;8.61;76.40
32243;BME280;18731;42.830;24.390;2022-11-24T12:06:22;93795.91;;;8.35;76.47
32243;BME280;18731;42.830;24.390;2022-11-24T12:17:26;93803.28;;;8.17;77.55
32243;BME280;18731;42.830;24.390;2022-11-24T12:28:35;93820.50;;;7.99;78.47
32243;BME280;18731;42.830;24.390;2022-11-24T12:31:05;93809.66;;;8.04;78.46
32243;BME280;18731;42.830;24.390;2022-11-24T12:39:11;93822.47;;;7.90;78.57
32243;BME280;18731;42.830;24.390;2022-11-24T12:41:56;93824.00;;;7.91;78.66
32243;BME280;18731;42.830;24.390;2022-11-24T12:49:49;93824.72;;;8.00;78.98
32243;BME280;18731;42.830;24.390;2022-11-24T12:52:30;93819.16;;;7.93;78.62
32243;BME280;18731;42.830;24.390;2022-11-24T12:54:58;93828.16;;;8.00;79.28
32243;BME280;18731;42.830;24.390;2022-11-24T12:57:39;93830.06;;;8.12;77.94
32243;BME280;18731;42.830;24.390;2022-11-24T13:04:22;93831.84;;;8.20;77.90
32243;BME280;18731;42.830;24.390;2022-11-24T13:09:20;93832.44;;;8.26;78.03
32243;BME280;18731;42.830;24.390;2022-11-24T13:11:50;93840.25;;;8.10;78.99
32243;BME280;18731;42.830;24.390;2022-11-24T13:14:36;93841.88;;;8.02;79.29
32243;BME280;18731;42.830;24.390;2022-11-24T13:17:25;93825.38;;;7.97;79.27
32243;BME280;18731;42.830;24.390;2022-11-24T13:19:51;93836.59;;;8.15;78.77
32243;BME280;18731;42.830;24.390;2022-11-24T13:22:23;93838.25;;;8.07;79.52
32243;BME280;18731;42.830;24.390;2022-11-24T13:25:23;93800.53;;;7.93;78.45
32243;BME280;18731;42.830;24.390;2022-11-24T13:27:53;93829.28;;;8.12;78.71
32243;BME280;18731;42.830;24.390;2022-11-24T13:47:02;93802.56;;;7.75;80.14
32243;BME280;18731;42.830;24.390;2022-11-24T13:49:41;93823.47;;;7.77;81.03
32243;BME280;18731;42.830;24.390;2022-11-24T13:57:44;93833.06;;;7.69;81.55
32243;BME280;18731;42.830;24.390;2022-11-24T14:03:19;93830.22;;;7.53;82.00
32243;BME280;18731;42.830;24.390;2022-11-24T14:05:49;93831.91;;;7.37;82.67
32243;BME280;18731;42.830;24.390;2022-11-24T14:08:22;93839.09;;;7.36;83.19
32243;BME280;18731;42.830;24.390;2022-11-24T14:10:49;93849.41;;;7.38;83.38
32243;BME280;18731;42.830;24.390;2022-11-24T14:18:32;93860.03;;;7.59;82.30
32243;BME280;18731;42.830;24.390;2022-11-24T14:21:14;93861.44;;;7.56;82.14
32243;BME280;18731;42.830;24.390;2022-11-24T14:26:36;93855.63;;;7.42;82.10
32243;BME280;18731;42.830;24.390;2022-11-24T14:29:05;93877.00;;;7.66;81.74
32243;BME280;18731;42.830;24.390;2022-11-24T14:31:32;93874.78;;;7.68;80.79
32243;BME280;18731;42.830;24.390;2022-11-24T14:34:14;93871.16;;;7.73;81.03
32243;BME280;18731;42.830;24.390;2022-11-24T14:36:41;93853.03;;;7.54;80.09
32243;BME280;18731;42.830;24.390;2022-11-24T14:39:14;93874.03;;;7.68;79.63
32243;BME280;18731;42.830;24.390;2022-11-24T14:41:50;93874.00;;;7.47;80.12
32243;BME280;18731;42.830;24.390;2022-11-24T14:44:25;93873.66;;;7.28;80.90
32243;BME280;18731;42.830;24.390;2022-11-24T14:47:05;93881.50;;;7.24;81.38
32243;BME280;18731;42.830;24.390;2022-11-24T14:49:32;93886.66;;;7.21;81.45
32243;BME280;18731;42.830;24.390;2022-11-24T14:52:03;93870.06;;;7.03;81.71
32243;BME280;18731;42.830;24.390;2022-11-24T14:54:52;93888.66;;;6.94;82.20
32243;BME280;18731;42.830;24.390;2022-11-24T14:57:34;93896.47;;;6.91;83.10
32243;BME280;18731;42.830;24.390;2022-11-24T15:00:19;93889.03;;;6.84;83.38
32243;BME280;18731;42.830;24.390;2022-11-24T15:03:16;93900.41;;;6.85;83.04
32243;BME280;18731;42.830;24.390;2022-11-24T15:05:54;93905.06;;;6.88;82.83
32243;BME280;18731;42.830;24.390;2022-11-24T15:08:23;93908.81;;;6.87;82.50
32243;BME280;18731;42.830;24.390;2022-11-24T15:10:56;93903.56;;;6.78;82.25
32243;BME280;18731;42.830;24.390;2022-11-24T15:13:23;93912.91;;;6.75;81.43
32243;BME280;18731;42.830;24.390;2022-11-24T15:15:55;93916.84;;;6.69;82.01
32243;BME280;18731;42.830;24.390;2022-11-24T15:18:42;93924.19;;;6.64;82.29
32243;BME280;18731;42.830;24.390;2022-11-24T15:21:09;93926.53;;;6.57;82.28
32243;BME280;18731;42.830;24.390;2022-11-24T15:23:36;93940.13;;;6.55;82.30
32243;BME280;18731;42.830;24.390;2022-11-24T15:28:29;93943.25;;;6.40;82.32
32243;BME280;18731;42.830;24.390;2022-11-24T15:31:00;93943.28;;;6.23;83.23
32243;BME280;18731;42.830;24.390;2022-11-24T15:33:26;93940.78;;;6.26;82.11
32243;BME280;18731;42.830;24.390;2022-11-24T15:35:52;93949.06;;;6.16;82.37
32243;BME280;18731;42.830;24.390;2022-11-24T15:38:18;93953.56;;;6.07;82.28
32243;BME280;18731;42.830;24.390;2022-11-24T15:40:46;93954.03;;;6.09;82.04
32243;BME280;18731;42.830;24.390;2022-11-24T15:45:43;93955.75;;;5.96;81.81
32243;BME280;18731;42.830;24.390;2022-11-24T15:48:09;93956.53;;;5.97;81.67
32243;BME280;18731;42.830;24.390;2022-11-24T15:50:35;93962.72;;;5.84;82.08
32243;BME280;18731;42.830;24.390;2022-11-24T15:53:02;93960.06;;;5.75;82.58
32243;BME280;18731;42.830;24.390;2022-11-24T15:55:28;93966.91;;;5.67;82.78
32243;BME280;18731;42.830;24.390;2022-11-24T15:57:54;93957.56;;;5.61;82.49
32243;BME280;18731;42.830;24.390;2022-11-24T16:00:21;93960.53;;;5.68;82.42
32243;BME280;18731;42.830;24.390;2022-11-24T16:02:47;93968.31;;;5.73;82.65
32243;BME280;18731;42.830;24.390;2022-11-24T16:05:14;93967.25;;;5.74;81.84
32243;BME280;18731;42.830;24.390;2022-11-24T16:07:40;93972.69;;;5.78;82.00
32243;BME280;18731;42.830;24.390;2022-11-24T16:10:11;93978.31;;;5.85;81.32
32243;BME280;18731;42.830;24.390;2022-11-24T16:12:39;93986.25;;;5.76;81.46
32243;BME280;18731;42.830;24.390;2022-11-24T16:15:05;93973.78;;;5.77;81.09
32243;BME280;18731;42.830;24.390;2022-11-24T16:17:30;93991.84;;;5.75;81.46
32243;BME280;18731;42.830;24.390;2022-11-24T16:19:56;93991.38;;;5.81;80.71
32243;BME280;18731;42.830;24.390;2022-11-24T16:22:21;93983.13;;;5.74;80.97
32243;BME280;18731;42.830;24.390;2022-11-24T16:24:47;93988.28;;;5.79;79.83
32243;BME280;18731;42.830;24.390;2022-11-24T16:27:13;93989.84;;;5.80;79.41
32243;BME280;18731;42.830;24.390;2022-11-24T16:29:38;93988.13;;;5.85;79.46
32243;BME280;18731;42.830;24.390;2022-11-24T16:32:04;93982.53;;;5.86;79.26
32243;BME280;18731;42.830;24.390;2022-11-24T16:34:30;94003.13;;;5.89;78.79
32243;BME280;18731;42.830;24.390;2022-11-24T16:36:56;93987.81;;;5.77;79.30
32243;BME280;18731;42.830;24.390;2022-11-24T16:39:21;94004.97;;;5.89;79.39
32243;BME280;18731;42.830;24.390;2022-11-24T16:41:47;94000.91;;;5.82;80.05
32243;BME280;18731;42.830;24.390;2022-11-24T16:44:12;93994.19;;;5.76;79.24
32243;BME280;18731;42.830;24.390;2022-11-24T16:46:38;94002.16;;;5.85;79.61
32243;BME280;18731;42.830;24.390;2022-11-24T16:49:03;94008.56;;;5.93;78.97
32243;BME280;18731;42.830;24.390;2022-11-24T16:51:29;94002.19;;;5.94;78.92
32243;BME280;18731;42.830;24.390;2022-11-24T16:53:57;94009.22;;;6.07;78.92
32243;BME280;18731;42.830;24.390;2022-11-24T16:56:23;93989.25;;;6.01;79.66
32243;BME280;18731;42.830;24.390;2022-11-24T16:58:48;93995.81;;;6.12;79.95
32243;BME280;18731;42.830;24.390;2022-11-24T17:01:14;94001.59;;;6.23;80.04
32243;BME280;18731;42.830;24.390;2022-11-24T17:03:40;94000.34;;;6.29;79.96
32243;BME280;18731;42.830;24.390;2022-11-24T17:06:08;93998.63;;;6.41;79.39
32243;BME280;18731;42.830;24.390;2022-11-24T17:08:35;94004.06;;;6.54;78.78
32243;BME280;18731;42.830;24.390;2022-11-24T17:11:13;94009.19;;;6.59;77.91
32243;BME280;18731;42.830;24.390;2022-11-24T17:13:40;94004.38;;;6.61;77.24
32243;BME280;18731;42.830;24.390;2022-11-24T17:16:11;94015.44;;;6.63;76.39
32243;BME280;18731;42.830;24.390;2022-11-24T17:18:37;94014.81;;;6.66;76.85
32243;BME280;18731;42.830;24.390;2022-11-24T17:21:05;94005.75;;;6.67;77.16
32243;BME280;18731;42.830;24.390;2022-11-24T17:23:31;93991.09;;;6.61;77.91
32243;BME280;18731;42.830;24.390;2022-11-24T17:26:04;93999.22;;;6.56;77.96
32243;BME280;18731;42.830;24.390;2022-11-24T17:28:30;94001.09;;;6.64;78.57
32243;BME280;18731;42.830;24.390;2022-11-24T17:30:56;94011.22;;;6.70;78.68
32243;BME280;18731;42.830;24.390;2022-11-24T17:33:22;94004.50;;;6.73;79.02
32243;BME280;18731;42.830;24.390;2022-11-24T17:35:47;94007.94;;;6.65;77.84
32243;BME280;18731;42.830;24.390;2022-11-24T17:38:13;94004.53;;;6.64;77.80
32243;BME280;18731;42.830;24.390;2022-11-24T17:40:39;94006.69;;;6.71;77.95
32243;BME280;18731;42.830;24.390;2022-11-24T17:43:05;94002.47;;;6.70;77.83
32243;BME280;18731;42.830;24.390;2022-11-24T17:45:30;94008.88;;;6.69;77.83
32243;BME280;18731;42.830;24.390;2022-11-24T17:47:58;94001.22;;;6.67;77.66
32243;BME280;18731;42.830;24.390;2022-11-24T17:50:24;93996.88;;;6.54;77.47
32243;BME280;18731;42.830;24.390;2022-11-24T17:52:50;94012.94;;;6.66;77.38
32243;BME280;18731;42.830;24.390;2022-11-24T17:55:15;94001.09;;;6.64;77.15
32243;BME280;18731;42.830;24.390;2022-11-24T17:57:42;94004.06;;;6.54;77.13
32243;BME280;18731;42.830;24.390;2022-11-24T18:00:08;94003.91;;;6.50;77.04
32243;BME280;18731;42.830;24.390;2022-11-24T18:02:36;94014.81;;;6.49;76.86